createdAt,value
2023-01-31T00:01:23.676Z,8.40
2023-01-31T00:03:59.215Z,7.38
2023-01-31T00:06:28.314Z,8.23
2023-01-31T00:08:55.867Z,7.85
2023-01-31T00:11:24.486Z,8.30
2023-01-31T00:13:51.825Z,8.38
2023-01-31T00:16:19.974Z,8.20
2023-01-31T00:18:46.921Z,8.20
2023-01-31T00:21:24.919Z,7.15
2023-01-31T00:23:53.588Z,7.72
2023-01-31T00:26:26.726Z,7.50
2023-01-31T00:28:55.210Z,7.70
2023-01-31T00:31:23.508Z,7.60
2023-01-31T00:33:52.490Z,8.50
2023-01-31T00:36:22.869Z,8.38
2023-01-31T00:38:54.713Z,8.25
2023-01-31T00:41:23.135Z,8.05
2023-01-31T00:43:51.252Z,8.45
2023-01-31T00:46:20.279Z,8.32
2023-01-31T00:48:47.488Z,8.35
2023-01-31T00:51:14.199Z,8.05
2023-01-31T00:53:40.997Z,8.63
2023-01-31T00:56:13.129Z,7.45
2023-01-31T00:58:40.308Z,8.68
2023-01-31T01:01:11.407Z,7.88
2023-01-31T01:03:39.228Z,9.43
2023-01-31T01:06:07.027Z,8.52
2023-01-31T01:08:34.727Z,8.25
2023-01-31T01:11:07.438Z,8.30
2023-01-31T01:13:34.675Z,8.48
2023-01-31T01:16:10.486Z,7.82
2023-01-31T01:18:37.246Z,8.68
2023-01-31T01:21:11.837Z,8.77
2023-01-31T01:23:40.055Z,8.43
2023-01-31T01:26:12.984Z,8.75
2023-01-31T01:28:39.614Z,8.70
2023-01-31T01:31:07.963Z,8.20
2023-01-31T01:33:35.657Z,9.70
2023-01-31T01:36:03.833Z,8.15
2023-01-31T01:38:30.600Z,9.27
2023-01-31T01:40:57.244Z,8.30
2023-01-31T01:43:40.189Z,8.88
2023-01-31T01:46:08.735Z,10.00
2023-01-31T01:48:36.283Z,8.27
2023-01-31T01:51:05.076Z,8.38
2023-01-31T01:53:34.629Z,8.40
2023-01-31T01:56:06.995Z,8.25
2023-01-31T01:58:53.786Z,8.50
2023-01-31T02:01:22.670Z,7.90
2023-01-31T02:03:51.587Z,7.93
2023-01-31T02:06:18.816Z,7.80
2023-01-31T02:08:45.691Z,8.35
2023-01-31T02:11:30.930Z,8.93
2023-01-31T02:14:03.678Z,8.48
2023-01-31T02:16:30.354Z,8.53
2023-01-31T02:18:57.788Z,8.45
2023-01-31T02:22:12.462Z,8.30
2023-01-31T02:27:49.016Z,8.05
2023-01-31T02:30:18.687Z,8.93
2023-01-31T02:32:52.887Z,9.15
2023-01-31T02:35:51.493Z,8.27
2023-01-31T02:38:20.924Z,9.18
2023-01-31T02:41:00.911Z,9.50
2023-01-31T02:44:17.808Z,8.93
2023-01-31T02:47:02.090Z,9.07
2023-01-31T02:49:44.885Z,8.52
2023-01-31T02:52:23.003Z,8.85
2023-01-31T02:55:33.941Z,9.38
2023-01-31T02:58:03.758Z,8.85
2023-01-31T03:00:34.246Z,9.10
2023-01-31T03:03:01.467Z,9.23
2023-01-31T03:05:28.630Z,9.68
2023-01-31T03:08:01.028Z,9.88
2023-01-31T03:10:48.576Z,9.45
2023-01-31T03:13:33.810Z,9.65
2023-01-31T03:16:36.557Z,10.05
2023-01-31T03:19:19.780Z,10.27
2023-01-31T03:21:53.001Z,9.27
2023-01-31T03:24:20.576Z,8.82
2023-01-31T03:26:48.267Z,9.63
2023-01-31T03:29:16.471Z,9.82
2023-01-31T03:31:53.301Z,9.93
2023-01-31T03:34:20.285Z,9.63
2023-01-31T03:36:57.431Z,8.93
2023-01-31T03:39:39.175Z,9.30
2023-01-31T03:42:18.871Z,9.18
2023-01-31T03:45:00.762Z,9.95
2023-01-31T03:47:40.759Z,8.38
2023-01-31T03:50:14.221Z,9.43
2023-01-31T03:55:19.133Z,8.93
2023-01-31T03:57:51.213Z,9.10
2023-01-31T04:00:19.599Z,9.02
2023-01-31T04:02:50.757Z,9.65
2023-01-31T04:05:22.859Z,9.00
2023-01-31T04:07:49.751Z,8.52
2023-01-31T04:10:19.086Z,8.50
2023-01-31T04:12:46.705Z,9.30
2023-01-31T04:15:14.468Z,8.75
2023-01-31T04:17:41.078Z,8.90
2023-01-31T04:20:09.574Z,7.78
2023-01-31T04:22:36.854Z,8.57
2023-01-31T04:25:04.151Z,7.82
2023-01-31T04:27:30.749Z,9.00
2023-01-31T04:29:57.323Z,9.05
2023-01-31T04:32:23.974Z,8.75
2023-01-31T04:34:50.570Z,9.27
2023-01-31T04:37:17.252Z,8.55
2023-01-31T04:39:44.176Z,8.27
2023-01-31T04:42:10.805Z,8.30
2023-01-31T04:44:37.388Z,8.07
2023-01-31T04:47:04.065Z,8.77
2023-01-31T04:49:30.675Z,8.20
2023-01-31T04:51:57.297Z,8.48
2023-01-31T04:54:23.954Z,8.05
2023-01-31T04:56:50.605Z,8.38
2023-01-31T04:59:17.230Z,7.88
2023-01-31T05:01:43.885Z,8.30
2023-01-31T05:04:10.991Z,8.07
2023-01-31T05:06:37.607Z,8.65
2023-01-31T05:09:04.284Z,9.00
2023-01-31T05:11:31.334Z,9.48
2023-01-31T05:13:58.048Z,8.50
2023-01-31T05:16:24.679Z,8.75
2023-01-31T05:18:51.297Z,8.07
2023-01-31T05:21:17.994Z,8.43
2023-01-31T05:23:44.679Z,8.40
2023-01-31T05:26:11.909Z,10.55
2023-01-31T05:28:38.552Z,19.77
2023-01-31T05:31:07.903Z,14.32
2023-01-31T05:33:35.957Z,12.20
2023-01-31T05:36:03.712Z,9.57
2023-01-31T05:38:31.246Z,10.32
2023-01-31T05:40:58.028Z,9.25
2023-01-31T05:43:24.626Z,9.73
2023-01-31T05:45:51.269Z,9.80
2023-01-31T05:48:17.975Z,9.32
2023-01-31T05:50:44.591Z,10.23
2023-01-31T05:53:11.265Z,12.52
2023-01-31T05:55:37.999Z,10.50
2023-01-31T05:58:04.692Z,11.05
2023-01-31T06:00:31.341Z,10.18
2023-01-31T06:02:59.580Z,10.07
2023-01-31T06:05:27.010Z,9.27
2023-01-31T06:07:53.759Z,9.20
2023-01-31T06:10:21.273Z,9.77
2023-01-31T06:12:48.307Z,10.07
2023-01-31T06:15:15.107Z,9.50
2023-01-31T06:17:41.707Z,9.70
2023-01-31T06:20:09.049Z,9.65
2023-01-31T06:22:37.992Z,9.80
2023-01-31T06:25:05.162Z,9.05
2023-01-31T06:27:33.542Z,9.02
2023-01-31T06:30:00.432Z,9.82
2023-01-31T06:32:27.039Z,8.98
2023-01-31T06:34:53.692Z,9.15
2023-01-31T06:37:20.283Z,9.90
2023-01-31T06:39:46.877Z,9.50
2023-01-31T06:42:13.692Z,9.80
2023-01-31T06:44:41.611Z,8.82
2023-01-31T06:47:08.237Z,9.45
2023-01-31T06:49:34.868Z,10.13
2023-01-31T06:52:01.643Z,8.50
2023-01-31T06:54:28.231Z,8.60
2023-01-31T06:56:54.995Z,7.90
2023-01-31T06:59:21.903Z,8.75
2023-01-31T07:01:48.684Z,8.90
2023-01-31T07:04:15.413Z,7.93
2023-01-31T07:06:42.041Z,8.60
2023-01-31T07:09:08.661Z,9.80
2023-01-31T07:11:36.949Z,9.38
2023-01-31T07:14:03.590Z,9.45
2023-01-31T07:16:31.181Z,8.38
2023-01-31T07:18:57.874Z,9.73
2023-01-31T07:21:26.209Z,8.65
2023-01-31T07:23:52.804Z,9.80
2023-01-31T07:26:19.463Z,8.95
2023-01-31T07:28:46.149Z,8.93
2023-01-31T07:31:14.724Z,9.48
2023-01-31T07:33:42.096Z,8.93
2023-01-31T07:36:13.351Z,9.80
2023-01-31T07:38:40.276Z,8.82
2023-01-31T07:41:08.561Z,8.73
2023-01-31T07:43:35.247Z,9.05
2023-01-31T07:46:02.256Z,9.90
2023-01-31T07:48:28.941Z,9.50
2023-01-31T07:51:01.192Z,9.23
2023-01-31T07:53:34.133Z,8.35
2023-01-31T07:56:13.289Z,9.00
2023-01-31T07:58:41.443Z,9.80
2023-01-31T08:01:32.699Z,8.85
2023-01-31T08:04:10.607Z,8.40
2023-01-31T08:06:46.537Z,8.88
2023-01-31T08:09:13.856Z,8.88
2023-01-31T08:11:40.645Z,8.57
2023-01-31T08:14:08.656Z,8.95
2023-01-31T08:16:36.473Z,10.27
2023-01-31T08:19:03.537Z,9.52
2023-01-31T08:21:30.520Z,9.15
2023-01-31T08:23:57.474Z,9.35
2023-01-31T08:26:24.163Z,9.38
2023-01-31T08:28:53.874Z,9.55
2023-01-31T08:31:25.691Z,9.35
2023-01-31T08:33:53.349Z,10.20
2023-01-31T08:36:25.578Z,9.27
2023-01-31T08:38:52.658Z,8.65
2023-01-31T08:41:21.085Z,9.75
2023-01-31T08:43:59.090Z,9.55
2023-01-31T08:46:30.748Z,9.45
2023-01-31T08:48:58.059Z,10.65
2023-01-31T08:51:25.007Z,10.35
2023-01-31T08:53:51.878Z,9.52
2023-01-31T08:56:21.254Z,9.60
2023-01-31T08:58:48.166Z,10.30
2023-01-31T09:01:17.640Z,10.90
2023-01-31T09:03:46.078Z,11.98
2023-01-31T09:06:15.929Z,10.45
2023-01-31T09:08:42.681Z,10.07
2023-01-31T09:11:09.739Z,11.15
2023-01-31T09:13:36.817Z,11.02
2023-01-31T09:16:09.950Z,9.77
2023-01-31T09:18:38.867Z,10.20
2023-01-31T09:21:10.997Z,10.57
2023-01-31T09:23:41.720Z,10.13
2023-01-31T09:26:09.497Z,9.48
2023-01-31T09:28:36.133Z,9.40
2023-01-31T09:31:07.956Z,9.63
2023-01-31T09:33:35.265Z,10.00
2023-01-31T09:36:07.986Z,10.38
2023-01-31T09:38:35.357Z,9.80
2023-01-31T09:41:05.315Z,10.65
2023-01-31T09:43:38.318Z,9.75
2023-01-31T09:46:09.956Z,11.60
2023-01-31T09:48:40.349Z,11.27
2023-01-31T09:51:07.261Z,10.55
2023-01-31T09:53:37.205Z,11.40
2023-01-31T09:56:15.493Z,10.45
2023-01-31T09:59:09.929Z,10.57
2023-01-31T10:02:00.546Z,10.93
2023-01-31T10:04:34.465Z,10.27
2023-01-31T10:07:24.280Z,10.45
2023-01-31T10:10:04.793Z,9.68
2023-01-31T10:12:44.227Z,10.10
2023-01-31T10:15:22.695Z,10.40
2023-01-31T10:17:56.915Z,10.02
2023-01-31T10:20:30.401Z,9.55
2023-01-31T10:25:40.028Z,9.43
2023-01-31T10:28:13.807Z,9.88
2023-01-31T10:31:20.935Z,10.27
2023-01-31T10:33:50.815Z,9.02
2023-01-31T10:36:29.094Z,10.60
2023-01-31T10:39:12.725Z,9.85
2023-01-31T10:42:08.244Z,9.35
2023-01-31T10:44:43.617Z,8.57
2023-01-31T10:47:17.882Z,8.80
2023-01-31T10:49:50.123Z,9.57
2023-01-31T10:52:25.527Z,9.52
2023-01-31T10:55:34.185Z,8.80
2023-01-31T10:58:01.499Z,9.50
2023-01-31T11:00:31.823Z,8.60
2023-01-31T11:02:58.956Z,8.45
2023-01-31T11:05:28.766Z,7.63
2023-01-31T11:08:05.630Z,7.80
2023-01-31T11:10:32.854Z,7.82
2023-01-31T11:13:04.382Z,7.13
2023-01-31T11:15:42.931Z,7.80
2023-01-31T11:18:15.428Z,7.25
2023-01-31T11:20:47.533Z,8.40
2023-01-31T11:23:17.572Z,7.50
2023-01-31T11:25:50.055Z,8.07
2023-01-31T11:28:22.002Z,7.63
2023-01-31T11:30:54.109Z,7.90
2023-01-31T11:33:39.458Z,7.97
2023-01-31T11:36:09.373Z,7.45
2023-01-31T11:38:35.991Z,7.03
2023-01-31T11:41:22.580Z,7.03
2023-01-31T11:43:49.219Z,6.90
2023-01-31T11:46:16.198Z,7.43
2023-01-31T11:48:44.581Z,7.25
2023-01-31T11:51:23.135Z,7.30
2023-01-31T11:53:51.199Z,7.05
2023-01-31T11:56:22.620Z,6.70
2023-01-31T11:58:53.803Z,10.07
2023-01-31T12:01:22.966Z,6.93
2023-01-31T12:04:02.542Z,7.88
2023-01-31T12:06:32.513Z,8.50
2023-01-31T12:09:01.427Z,9.00
2023-01-31T12:11:30.070Z,8.57
2023-01-31T12:14:16.294Z,8.02
2023-01-31T12:16:44.468Z,7.63
2023-01-31T12:19:14.319Z,8.32
2023-01-31T12:21:43.746Z,7.07
2023-01-31T12:24:39.139Z,8.35
2023-01-31T12:27:11.585Z,6.95
2023-01-31T12:30:13.169Z,7.78
2023-01-31T12:32:54.637Z,7.18
2023-01-31T12:35:57.186Z,7.35
2023-01-31T12:38:58.517Z,7.88
2023-01-31T12:41:41.381Z,7.03
2023-01-31T12:44:31.558Z,7.27
2023-01-31T12:47:18.563Z,7.82
2023-01-31T12:50:15.751Z,6.93
2023-01-31T12:52:57.246Z,7.55
2023-01-31T12:55:30.033Z,7.25
2023-01-31T12:58:28.492Z,6.38
2023-01-31T13:01:03.693Z,6.50
2023-01-31T13:04:10.531Z,7.18
2023-01-31T13:06:43.803Z,6.95
2023-01-31T13:09:20.063Z,5.90
2023-01-31T13:12:03.649Z,5.93
2023-01-31T13:14:35.216Z,6.82
2023-01-31T13:17:06.106Z,5.68
2023-01-31T13:19:50.516Z,6.22
2023-01-31T13:22:22.651Z,5.63
2023-01-31T13:24:57.429Z,6.20
2023-01-31T13:27:31.025Z,5.88
2023-01-31T13:30:17.153Z,6.97
2023-01-31T13:32:49.551Z,6.47
2023-01-31T13:35:28.488Z,6.78
2023-01-31T13:38:02.927Z,6.18
2023-01-31T13:40:34.863Z,5.82
2023-01-31T13:43:08.477Z,5.95
2023-01-31T13:45:45.939Z,5.28
2023-01-31T13:48:31.123Z,5.10
2023-01-31T13:51:03.525Z,4.30
2023-01-31T13:53:36.622Z,3.95
2023-01-31T13:56:08.868Z,4.40
2023-01-31T13:58:36.591Z,4.45
2023-01-31T14:01:18.720Z,4.70
2023-01-31T14:04:17.649Z,4.57
2023-01-31T14:06:56.321Z,3.97
2023-01-31T14:09:27.292Z,4.20
2023-01-31T14:12:02.017Z,3.78
2023-01-31T14:14:39.777Z,3.70
2023-01-31T14:17:34.111Z,3.75
2023-01-31T14:20:21.541Z,3.90
2023-01-31T14:23:27.969Z,3.88
2023-01-31T14:25:54.641Z,3.47
2023-01-31T14:28:21.795Z,3.72
2023-01-31T14:30:48.670Z,3.55
2023-01-31T14:33:21.975Z,3.90
2023-01-31T14:35:57.627Z,3.63
2023-01-31T14:38:27.309Z,3.88
2023-01-31T14:41:19.763Z,3.75
2023-01-31T14:43:58.122Z,3.65
2023-01-31T14:47:06.555Z,3.78
2023-01-31T14:49:54.166Z,4.13
2023-01-31T14:52:48.843Z,4.65
2023-01-31T14:55:50.027Z,3.90
2023-01-31T14:58:25.603Z,4.13
2023-01-31T15:00:58.939Z,3.95
2023-01-31T15:03:30.252Z,4.72
2023-01-31T15:06:21.751Z,3.67
2023-01-31T15:08:50.135Z,3.63
2023-01-31T15:11:41.061Z,4.38
2023-01-31T15:14:38.881Z,4.10
2023-01-31T15:17:33.606Z,4.22
2023-01-31T15:20:19.639Z,4.40
2023-01-31T15:22:47.521Z,4.15
2023-01-31T15:25:32.592Z,4.25
2023-01-31T15:28:00.647Z,5.00
2023-01-31T15:30:30.093Z,5.13
2023-01-31T15:33:08.422Z,4.30
2023-01-31T15:35:49.595Z,4.07
2023-01-31T15:38:35.013Z,4.53
2023-01-31T15:41:38.329Z,5.38
2023-01-31T15:44:12.384Z,5.63
2023-01-31T15:46:39.108Z,4.32
2023-01-31T15:49:40.820Z,4.28
2023-01-31T15:52:10.155Z,4.43
2023-01-31T15:54:37.264Z,5.20
2023-01-31T15:57:05.344Z,4.88
2023-01-31T15:59:33.962Z,5.10
2023-01-31T16:02:03.054Z,5.30
2023-01-31T16:04:30.379Z,5.07
2023-01-31T16:06:57.172Z,5.20
2023-01-31T16:09:25.378Z,5.30
2023-01-31T16:11:53.176Z,6.85
2023-01-31T16:14:21.617Z,6.88
2023-01-31T16:16:53.351Z,6.68
2023-01-31T16:19:28.042Z,4.35
2023-01-31T16:21:55.287Z,5.25
2023-01-31T16:24:23.200Z,5.60
2023-01-31T16:27:02.980Z,5.65
2023-01-31T16:29:40.672Z,5.90
2023-01-31T16:32:22.410Z,5.10
2023-01-31T16:34:55.270Z,5.15
2023-01-31T16:37:40.196Z,4.80
2023-01-31T16:40:22.873Z,4.80
2023-01-31T16:42:49.894Z,5.22
2023-01-31T16:45:34.226Z,5.03
2023-01-31T16:48:31.881Z,4.30
2023-01-31T16:51:10.360Z,5.10
2023-01-31T16:53:40.051Z,5.32
2023-01-31T16:56:18.571Z,4.82
2023-01-31T16:58:49.711Z,5.47
2023-01-31T17:01:24.005Z,5.10
2023-01-31T17:04:08.845Z,5.55
2023-01-31T17:06:36.219Z,5.57
2023-01-31T17:09:05.407Z,5.28
2023-01-31T17:11:42.143Z,5.05
2023-01-31T17:14:10.179Z,5.13
2023-01-31T17:16:36.949Z,5.68
2023-01-31T17:19:03.816Z,5.63
2023-01-31T17:21:34.913Z,5.10
2023-01-31T17:24:01.549Z,5.88
2023-01-31T17:26:28.215Z,6.15
2023-01-31T17:29:02.180Z,5.25
2023-01-31T17:31:31.106Z,5.15
2023-01-31T17:33:57.867Z,5.35
2023-01-31T17:36:24.476Z,5.13
2023-01-31T17:38:52.852Z,5.78
2023-01-31T17:41:21.490Z,4.88
2023-01-31T17:43:48.248Z,5.65
2023-01-31T17:46:17.102Z,5.35
2023-01-31T17:48:44.300Z,5.28
2023-01-31T17:51:11.710Z,5.28
2023-01-31T17:53:47.859Z,5.25
2023-01-31T17:56:17.572Z,5.05
2023-01-31T17:58:44.224Z,5.63
2023-01-31T18:01:13.888Z,5.53
2023-01-31T18:03:41.525Z,5.25
2023-01-31T18:06:10.063Z,5.50
2023-01-31T18:08:37.540Z,5.05
2023-01-31T18:11:12.583Z,5.70
2023-01-31T18:13:39.659Z,5.30
2023-01-31T18:16:15.427Z,5.70
2023-01-31T18:18:45.950Z,5.50
2023-01-31T18:21:15.367Z,5.05
2023-01-31T18:23:42.003Z,6.43
2023-01-31T18:26:10.397Z,4.90
2023-01-31T18:28:37.386Z,5.13
2023-01-31T18:31:07.931Z,5.70
2023-01-31T18:33:34.595Z,5.93
2023-01-31T18:36:01.965Z,6.63
2023-01-31T18:38:29.555Z,5.80
2023-01-31T18:40:56.822Z,6.88
2023-01-31T18:43:24.278Z,5.57
2023-01-31T18:45:50.896Z,5.97
2023-01-31T18:48:17.887Z,5.72
2023-01-31T18:50:44.586Z,5.90
2023-01-31T18:53:11.247Z,5.53
2023-01-31T18:55:37.894Z,5.70
2023-01-31T18:58:04.478Z,6.22
2023-01-31T19:00:31.102Z,6.32
2023-01-31T19:02:58.511Z,5.57
2023-01-31T19:05:25.639Z,6.68
2023-01-31T19:07:52.366Z,6.32
2023-01-31T19:10:19.061Z,6.07
2023-01-31T19:12:45.657Z,7.28
2023-01-31T19:15:12.986Z,6.85
2023-01-31T19:17:39.711Z,6.47
2023-01-31T19:20:06.980Z,5.88
2023-01-31T19:22:33.602Z,6.45
2023-01-31T19:25:00.311Z,5.75
2023-01-31T19:27:27.109Z,5.82
2023-01-31T19:29:53.813Z,5.22
2023-01-31T19:32:22.321Z,5.55
2023-01-31T19:34:48.925Z,5.72
2023-01-31T19:37:15.727Z,6.07
2023-01-31T19:39:42.391Z,6.22
2023-01-31T19:42:09.120Z,5.50
2023-01-31T19:44:35.755Z,5.07
2023-01-31T19:47:02.363Z,5.13
2023-01-31T19:49:29.076Z,4.80
2023-01-31T19:51:55.687Z,4.70
2023-01-31T19:54:22.647Z,4.78
2023-01-31T19:56:49.343Z,5.70
2023-01-31T19:59:15.986Z,5.13
2023-01-31T20:01:42.612Z,4.68
2023-01-31T20:04:09.303Z,5.43
2023-01-31T20:06:36.129Z,4.78
2023-01-31T20:09:07.385Z,4.97
2023-01-31T20:11:35.012Z,5.38
2023-01-31T20:14:01.629Z,4.25
2023-01-31T20:16:28.783Z,4.95
2023-01-31T20:18:56.242Z,4.82
2023-01-31T20:21:23.041Z,4.72
2023-01-31T20:23:50.183Z,4.85
2023-01-31T20:26:18.377Z,5.18
2023-01-31T20:28:45.660Z,4.57
2023-01-31T20:31:14.052Z,5.43
2023-01-31T20:33:41.183Z,5.90
2023-01-31T20:36:08.687Z,5.40
2023-01-31T20:38:37.660Z,5.68
2023-01-31T20:41:06.727Z,5.85
2023-01-31T20:43:33.337Z,5.00
2023-01-31T20:46:09.308Z,4.28
2023-01-31T20:48:36.527Z,5.03
2023-01-31T20:51:03.337Z,4.80
2023-01-31T20:53:30.458Z,5.05
2023-01-31T20:56:02.462Z,4.63
2023-01-31T20:58:32.007Z,4.85
2023-01-31T21:01:00.032Z,4.70
2023-01-31T21:03:27.234Z,4.55
2023-01-31T21:05:53.894Z,4.47
2023-01-31T21:08:21.521Z,3.92
2023-01-31T21:10:52.517Z,4.35
2023-01-31T21:13:20.245Z,4.18
2023-01-31T21:15:58.161Z,4.05
2023-01-31T21:18:27.676Z,3.42
2023-01-31T21:20:55.127Z,3.65
2023-01-31T21:23:21.804Z,3.92
2023-01-31T21:25:48.590Z,3.90
2023-01-31T21:28:15.540Z,4.00
2023-01-31T21:30:42.477Z,3.42
2023-01-31T21:33:09.179Z,4.40
2023-01-31T21:35:35.787Z,4.03
2023-01-31T21:38:02.354Z,4.10
2023-01-31T21:40:28.980Z,4.32
2023-01-31T21:42:55.596Z,4.05
2023-01-31T21:45:40.397Z,4.25
2023-01-31T21:48:29.583Z,4.18
2023-01-31T21:50:57.279Z,4.53
2023-01-31T21:53:24.214Z,4.32
2023-01-31T21:55:50.833Z,4.65
2023-01-31T21:58:17.536Z,4.38
2023-01-31T22:00:44.309Z,4.07
2023-01-31T22:03:11.026Z,4.00
2023-01-31T22:05:37.677Z,5.18
2023-01-31T22:08:04.509Z,4.70
2023-01-31T22:10:31.098Z,4.70
2023-01-31T22:12:57.693Z,4.20
2023-01-31T22:15:24.331Z,5.35
2023-01-31T22:17:50.908Z,4.70
2023-01-31T22:20:17.684Z,4.72
2023-01-31T22:22:45.187Z,4.90
2023-01-31T22:25:11.840Z,5.20
2023-01-31T22:27:38.445Z,4.75
2023-01-31T22:30:15.742Z,5.20
2023-01-31T22:32:43.395Z,5.03
2023-01-31T22:35:10.443Z,5.88
2023-01-31T22:37:37.125Z,4.63
2023-01-31T22:40:03.982Z,4.18
2023-01-31T22:42:30.585Z,4.88
2023-01-31T22:44:57.151Z,4.43
2023-01-31T22:47:25.075Z,4.65
2023-01-31T22:49:51.791Z,4.22
2023-01-31T22:52:18.612Z,4.30
2023-01-31T22:54:45.240Z,4.28
2023-01-31T22:57:12.238Z,4.30
2023-01-31T22:59:38.834Z,4.20
2023-01-31T23:02:05.700Z,4.45
2023-01-31T23:04:32.333Z,4.20
2023-01-31T23:06:59.005Z,4.35
2023-01-31T23:09:25.575Z,4.00
2023-01-31T23:11:52.217Z,4.20
2023-01-31T23:14:18.862Z,3.92
2023-01-31T23:17:04.077Z,4.13
2023-01-31T23:19:30.683Z,4.10
2023-01-31T23:21:57.284Z,3.55
2023-01-31T23:24:23.987Z,3.85
2023-01-31T23:26:50.912Z,3.97
2023-01-31T23:29:17.640Z,3.80
2023-01-31T23:31:44.384Z,3.70
2023-01-31T23:34:11.030Z,3.72
2023-01-31T23:36:37.676Z,3.38
2023-01-31T23:39:04.856Z,3.33
2023-01-31T23:41:31.511Z,3.50
2023-01-31T23:43:58.131Z,3.40
2023-01-31T23:46:24.855Z,3.70
2023-01-31T23:48:51.478Z,3.90
2023-01-31T23:51:18.194Z,3.60
2023-01-31T23:53:44.752Z,4.13
2023-01-31T23:56:11.367Z,3.53
2023-01-31T23:58:37.989Z,3.78
